createdAt,value
2017-12-26T00:00:31.396Z,997.67
2017-12-26T00:01:41.468Z,997.66
2017-12-26T00:02:51.263Z,997.7
2017-12-26T00:04:01.342Z,997.66
2017-12-26T00:05:12.104Z,997.66
2017-12-26T00:06:21.946Z,997.64
2017-12-26T00:07:31.996Z,997.6
2017-12-26T00:08:42.078Z,997.57
2017-12-26T00:09:51.896Z,997.55
2017-12-26T00:11:02.019Z,997.61
2017-12-26T00:12:12.117Z,997.58
2017-12-26T00:13:22.259Z,997.57
2017-12-26T00:14:32.076Z,997.62
2017-12-26T00:15:43.062Z,997.61
2017-12-26T00:16:53.154Z,997.63
2017-12-26T00:18:03.232Z,997.6
2017-12-26T00:19:13.030Z,997.6
2017-12-26T00:20:23.109Z,997.6
2017-12-26T00:21:33.200Z,997.61
2017-12-26T00:22:43.331Z,997.57
2017-12-26T00:23:53.128Z,997.61
2017-12-26T00:25:02.936Z,997.62
2017-12-26T00:26:13.016Z,997.63
2017-12-26T00:27:23.071Z,997.56
2017-12-26T00:28:33.160Z,997.57
2017-12-26T00:29:43.681Z,997.58
2017-12-26T00:30:53.761Z,997.58
2017-12-26T00:32:05.151Z,997.49
2017-12-26T00:33:16.389Z,997.52
2017-12-26T00:34:27.377Z,997.53
2017-12-26T00:35:38.409Z,997.52
2017-12-26T00:36:48.225Z,997.52
2017-12-26T00:37:58.278Z,997.55
2017-12-26T00:39:08.102Z,997.51
2017-12-26T00:40:17.968Z,997.47
2017-12-26T00:41:27.819Z,997.45
2017-12-26T00:42:37.891Z,997.44
2017-12-26T00:43:47.965Z,997.45
2017-12-26T00:44:58.048Z,997.42
2017-12-26T00:46:08.159Z,997.39
2017-12-26T00:47:17.974Z,997.36
2017-12-26T00:48:28.034Z,997.35
2017-12-26T00:49:37.822Z,997.3
2017-12-26T00:50:47.884Z,997.27
2017-12-26T00:51:57.941Z,997.21
2017-12-26T00:53:08.013Z,997.16
2017-12-26T00:54:18.069Z,997.19
2017-12-26T00:55:28.655Z,997.2
2017-12-26T00:56:38.704Z,997.27
2017-12-26T00:57:48.505Z,997.21
2017-12-26T00:58:58.554Z,997.2
2017-12-26T01:00:08.602Z,997.18
2017-12-26T01:01:18.673Z,997.16
2017-12-26T01:02:28.744Z,997.14
2017-12-26T01:03:39.094Z,997.13
2017-12-26T01:04:49.157Z,997.15
2017-12-26T01:05:59.011Z,997.17
2017-12-26T01:07:08.857Z,997.18
2017-12-26T01:08:19.049Z,997.19
2017-12-26T01:09:30.059Z,997.13
2017-12-26T01:10:40.118Z,997.15
2017-12-26T01:11:51.238Z,997.14
2017-12-26T01:13:01.056Z,997.15
2017-12-26T01:14:11.147Z,997.22
2017-12-26T01:15:21.206Z,997.15
2017-12-26T01:16:31.266Z,997.16
2017-12-26T01:17:41.328Z,997.16
2017-12-26T01:18:51.132Z,997.13
2017-12-26T01:20:00.676Z,997.1
2017-12-26T01:21:10.757Z,997.08
2017-12-26T01:22:20.816Z,997.11
2017-12-26T01:23:31.686Z,997.09
2017-12-26T01:24:41.217Z,997.07
2017-12-26T01:25:51.262Z,997.06
2017-12-26T01:27:01.362Z,997.03
2017-12-26T01:28:11.417Z,997.07
2017-12-26T01:29:21.520Z,997.08
2017-12-26T01:30:31.567Z,997.06
2017-12-26T01:31:41.614Z,997.07
2017-12-26T01:32:51.425Z,997.1
2017-12-26T01:34:01.472Z,997.12
2017-12-26T01:35:11.529Z,997.12
2017-12-26T01:36:21.337Z,997.1
2017-12-26T01:37:31.400Z,997.12
2017-12-26T01:38:41.274Z,997.1
2017-12-26T01:39:51.312Z,997.06
2017-12-26T01:41:01.117Z,997.06
2017-12-26T01:42:11.210Z,997.04
2017-12-26T01:43:21.277Z,997.02
2017-12-26T01:44:31.088Z,997.01
2017-12-26T01:45:40.877Z,996.95
2017-12-26T01:46:50.939Z,996.96
2017-12-26T01:48:00.725Z,996.9
2017-12-26T01:49:10.520Z,996.88
2017-12-26T01:50:20.327Z,996.82
2017-12-26T01:51:30.138Z,996.85
2017-12-26T01:52:40.184Z,996.81
2017-12-26T01:53:50.242Z,996.83
2017-12-26T01:55:00.031Z,996.82
2017-12-26T01:56:10.085Z,996.8
2017-12-26T01:57:20.142Z,996.79
2017-12-26T01:58:29.924Z,996.75
2017-12-26T01:59:39.982Z,996.76
2017-12-26T02:00:49.777Z,996.67
2017-12-26T02:01:59.881Z,996.68
2017-12-26T02:03:09.943Z,996.68
2017-12-26T02:04:19.992Z,996.62
2017-12-26T02:05:30.065Z,996.63
2017-12-26T02:06:40.128Z,996.62
2017-12-26T02:07:49.931Z,996.58
2017-12-26T02:08:59.985Z,996.61
2017-12-26T02:10:10.036Z,996.56
2017-12-26T02:11:19.832Z,996.55
2017-12-26T02:12:29.894Z,996.54
2017-12-26T02:13:39.691Z,996.53
2017-12-26T02:14:49.738Z,996.49
2017-12-26T02:15:59.800Z,996.49
2017-12-26T02:17:09.332Z,996.45
2017-12-26T02:18:19.433Z,996.53
2017-12-26T02:19:28.982Z,996.52
2017-12-26T02:20:38.791Z,996.53
2017-12-26T02:21:48.859Z,996.53
2017-12-26T02:22:58.376Z,996.6
2017-12-26T02:24:08.435Z,996.51
2017-12-26T02:25:18.297Z,996.5
2017-12-26T02:26:28.866Z,996.48
2017-12-26T02:27:38.928Z,996.45
2017-12-26T02:28:48.713Z,996.41
2017-12-26T02:29:58.801Z,996.4
2017-12-26T02:31:08.913Z,996.44
2017-12-26T02:32:18.718Z,996.46
2017-12-26T02:33:28.511Z,996.39
2017-12-26T02:34:38.578Z,996.42
2017-12-26T02:35:48.378Z,996.41
2017-12-26T02:36:58.474Z,996.41
2017-12-26T02:38:08.523Z,996.45
2017-12-26T02:39:18.339Z,996.41
2017-12-26T02:40:28.422Z,996.41
2017-12-26T02:41:38.469Z,996.43
2017-12-26T02:42:48.259Z,996.39
2017-12-26T02:43:58.321Z,996.36
2017-12-26T02:45:08.119Z,996.35
2017-12-26T02:46:18.186Z,996.35
2017-12-26T02:47:27.999Z,996.34
2017-12-26T02:48:38.113Z,996.33
2017-12-26T02:49:47.905Z,996.25
2017-12-26T02:50:57.975Z,996.26
2017-12-26T02:52:07.781Z,996.21
2017-12-26T02:53:17.587Z,996.21
2017-12-26T02:54:27.654Z,996.14
2017-12-26T02:55:37.719Z,996.17
2017-12-26T02:56:47.524Z,996.15
2017-12-26T02:57:57.589Z,996.08
2017-12-26T02:59:07.654Z,996.1
2017-12-26T03:00:17.527Z,996.08
2017-12-26T03:01:27.384Z,996.04
2017-12-26T03:02:37.432Z,996.04
2017-12-26T03:33:47.818Z,995.78
2017-12-26T03:34:57.854Z,995.78
2017-12-26T03:36:07.641Z,995.76
2017-12-26T03:37:17.684Z,995.77
2017-12-26T03:38:27.466Z,995.75
2017-12-26T03:39:37.305Z,995.76
2017-12-26T03:40:47.370Z,995.74
2017-12-26T03:41:57.401Z,995.71
2017-12-26T03:43:07.457Z,995.71
2017-12-26T03:44:17.257Z,995.69
2017-12-26T03:45:26.772Z,995.72
2017-12-26T03:46:36.809Z,995.71
2017-12-26T03:47:46.603Z,995.7
2017-12-26T03:48:56.688Z,995.76
2017-12-26T03:50:06.752Z,995.74
2017-12-26T03:51:16.882Z,995.69
2017-12-26T03:52:26.935Z,995.67
2017-12-26T03:53:36.735Z,995.6
2017-12-26T03:54:46.539Z,995.61
2017-12-26T03:55:56.322Z,995.56
2017-12-26T03:57:06.376Z,995.45
2017-12-26T03:58:16.432Z,995.47
2017-12-26T03:59:26.486Z,995.51
2017-12-26T04:00:36.540Z,995.51
2017-12-26T04:01:46.597Z,995.61
2017-12-26T04:02:56.706Z,995.59
2017-12-26T04:04:06.514Z,995.58
2017-12-26T04:05:16.312Z,995.52
2017-12-26T04:06:26.092Z,995.51
2017-12-26T04:07:35.882Z,995.51
2017-12-26T04:08:46.014Z,995.54
2017-12-26T04:09:56.074Z,995.54
2017-12-26T04:11:06.126Z,995.53
2017-12-26T04:12:16.179Z,995.48
2017-12-26T04:13:26.226Z,995.49
2017-12-26T04:14:36.270Z,995.49
2017-12-26T04:15:46.042Z,995.54
2017-12-26T04:16:55.822Z,995.48
2017-12-26T04:18:05.892Z,995.5
2017-12-26T04:19:15.945Z,995.52
2017-12-26T04:20:26.059Z,995.52
2017-12-26T04:21:36.099Z,995.5
2017-12-26T04:22:45.887Z,995.51
2017-12-26T04:23:55.938Z,995.51
2017-12-26T04:25:05.481Z,995.54
2017-12-26T04:26:15.007Z,995.56
2017-12-26T04:27:25.052Z,995.5
2017-12-26T04:28:35.135Z,995.51
2017-12-26T04:29:45.190Z,995.47
2017-12-26T04:30:54.711Z,995.47
2017-12-26T04:32:04.507Z,995.46
2017-12-26T04:33:14.282Z,995.44
2017-12-26T04:34:24.073Z,995.36
2017-12-26T04:35:34.131Z,995.29
2017-12-26T04:36:44.175Z,995.29
2017-12-26T04:37:54.017Z,995.37
2017-12-26T04:39:04.070Z,995.35
2017-12-26T04:40:13.850Z,995.33
2017-12-26T04:41:23.953Z,995.37
2017-12-26T04:42:33.493Z,995.4
2017-12-26T04:43:43.626Z,995.42
2017-12-26T04:44:53.670Z,995.45
2017-12-26T04:46:03.451Z,995.42
2017-12-26T04:47:13.240Z,995.44
2017-12-26T04:48:23.024Z,995.47
2017-12-26T04:49:33.098Z,995.43
2017-12-26T04:50:43.149Z,995.39
2017-12-26T04:51:53.209Z,995.44
2017-12-26T04:53:03.249Z,995.38
2017-12-26T04:54:13.298Z,995.35
2017-12-26T04:55:23.379Z,995.35
2017-12-26T04:56:33.436Z,995.34
2017-12-26T04:57:43.228Z,995.33
2017-12-26T04:58:53.277Z,995.33
2017-12-26T05:00:03.334Z,995.29
2017-12-26T05:01:13.389Z,995.24
2017-12-26T05:02:23.438Z,995.23
2017-12-26T05:03:34.581Z,995.27
2017-12-26T05:04:44.372Z,995.28
2017-12-26T05:05:54.171Z,995.24
2017-12-26T05:07:04.228Z,995.25
2017-12-26T05:08:14.267Z,995.22
2017-12-26T05:09:24.082Z,995.23
2017-12-26T05:10:33.878Z,995.2
2017-12-26T05:11:43.671Z,995.2
2017-12-26T05:12:53.769Z,995.2
2017-12-26T05:14:03.568Z,995.17
2017-12-26T05:15:13.642Z,995.19
2017-12-26T05:16:23.691Z,995.16
2017-12-26T05:17:33.740Z,995.18
2017-12-26T05:18:43.793Z,995.16
2017-12-26T05:19:53.853Z,995.19
2017-12-26T05:21:03.884Z,995.16
2017-12-26T05:22:13.927Z,995.12
2017-12-26T05:23:23.975Z,995.13
2017-12-26T05:24:33.810Z,995.1
2017-12-26T05:25:43.601Z,995.07
2017-12-26T05:26:53.662Z,995.03
2017-12-26T05:28:03.706Z,995.04
2017-12-26T05:29:13.491Z,994.99
2017-12-26T05:30:23.553Z,995.02
2017-12-26T05:31:33.609Z,994.99
2017-12-26T05:32:43.651Z,994.99
2017-12-26T05:33:53.188Z,994.94
2017-12-26T05:35:02.994Z,994.94
2017-12-26T05:36:13.102Z,994.94
2017-12-26T05:37:23.165Z,994.93
2017-12-26T05:38:33.006Z,994.93
2017-12-26T05:39:43.058Z,994.97
2017-12-26T05:40:53.125Z,994.94
2017-12-26T05:42:03.183Z,994.95
2017-12-26T05:43:13.233Z,994.94
2017-12-26T05:44:23.290Z,994.93
2017-12-26T05:45:33.325Z,994.93
2017-12-26T05:46:43.111Z,994.91
2017-12-26T05:47:53.165Z,994.94
2017-12-26T05:49:03.229Z,994.96
2017-12-26T05:50:13.274Z,994.98
2017-12-26T05:51:23.324Z,994.99
2017-12-26T05:52:33.106Z,994.99
2017-12-26T05:53:43.211Z,994.99
2017-12-26T05:54:53.279Z,994.99
2017-12-26T05:56:03.347Z,994.97
2017-12-26T05:57:13.408Z,994.95
2017-12-26T05:58:23.469Z,994.94
2017-12-26T05:59:33.261Z,994.9
2017-12-26T06:00:43.327Z,994.9
2017-12-26T06:01:53.116Z,994.9
2017-12-26T06:03:02.932Z,994.86
2017-12-26T06:04:12.718Z,994.84
2017-12-26T06:05:22.812Z,994.86
2017-12-26T06:06:32.862Z,994.8
2017-12-26T06:07:42.652Z,994.8
2017-12-26T06:08:53.973Z,994.76
2017-12-26T06:10:04.043Z,994.75
2017-12-26T06:11:13.629Z,994.78
2017-12-26T06:12:23.685Z,994.76
2017-12-26T06:13:33.747Z,994.78
2017-12-26T06:14:43.274Z,994.78
2017-12-26T06:15:52.828Z,994.72
2017-12-26T06:17:02.873Z,994.75
2017-12-26T06:18:12.924Z,994.75
2017-12-26T06:19:23.039Z,994.74
2017-12-26T06:20:33.080Z,994.66
2017-12-26T06:21:43.140Z,994.67
2017-12-26T06:22:53.246Z,994.7
2017-12-26T06:24:03.289Z,994.7
2017-12-26T06:25:13.064Z,994.68
2017-12-26T06:26:23.113Z,994.66
2017-12-26T06:27:32.955Z,994.64
2017-12-26T06:28:42.220Z,994.66
2017-12-26T06:29:51.742Z,994.67
2017-12-26T06:31:01.779Z,994.68
2017-12-26T06:32:11.570Z,994.68
2017-12-26T06:33:21.368Z,994.63
2017-12-26T06:34:31.395Z,994.6
2017-12-26T06:35:41.182Z,994.61
2017-12-26T06:36:51.225Z,994.62
2017-12-26T06:38:01.271Z,994.62
2017-12-26T06:39:11.316Z,994.6
2017-12-26T06:40:22.557Z,994.6
2017-12-26T06:41:32.092Z,994.61
2017-12-26T06:42:42.147Z,994.64
2017-12-26T06:43:52.195Z,994.62
2017-12-26T06:45:01.995Z,994.61
2017-12-26T06:46:11.797Z,994.66
2017-12-26T06:47:21.834Z,994.67
2017-12-26T06:48:31.612Z,994.66
2017-12-26T06:49:41.396Z,994.66
2017-12-26T06:50:51.432Z,994.66
2017-12-26T06:52:01.557Z,994.64
2017-12-26T06:53:11.634Z,994.64
2017-12-26T06:54:21.424Z,994.64
2017-12-26T06:55:31.472Z,994.64
2017-12-26T06:56:41.522Z,994.62
2017-12-26T06:57:51.561Z,994.63
2017-12-26T06:59:01.356Z,994.62
2017-12-26T07:00:11.408Z,994.59
2017-12-26T07:01:23.056Z,994.57
2017-12-26T07:02:32.835Z,994.58
2017-12-26T07:03:42.904Z,994.56
2017-12-26T07:04:52.950Z,994.55
2017-12-26T07:06:02.998Z,994.56
2017-12-26T07:07:13.046Z,994.58
2017-12-26T07:08:23.103Z,994.59
2017-12-26T07:09:33.142Z,994.58
2017-12-26T07:10:43.202Z,994.63
2017-12-26T07:11:52.999Z,994.57
2017-12-26T07:13:02.806Z,994.57
2017-12-26T07:14:12.848Z,994.64
2017-12-26T07:15:22.911Z,994.61
2017-12-26T07:16:32.978Z,994.62
2017-12-26T07:17:43.049Z,994.64
2017-12-26T07:18:53.102Z,994.67
2017-12-26T07:20:02.881Z,994.7
2017-12-26T07:21:12.720Z,994.71
2017-12-26T07:22:22.522Z,994.68
2017-12-26T07:23:32.579Z,994.67
2017-12-26T07:24:42.640Z,994.69
2017-12-26T07:25:52.703Z,994.7
2017-12-26T07:27:02.813Z,994.72
2017-12-26T07:28:12.617Z,994.72
2017-12-26T07:29:22.413Z,994.71
2017-12-26T07:30:32.477Z,994.71
2017-12-26T07:31:42.527Z,994.76
2017-12-26T07:32:52.606Z,994.77
2017-12-26T07:34:02.650Z,994.71
2017-12-26T07:35:12.445Z,994.77
2017-12-26T07:36:22.509Z,994.74
2017-12-26T07:37:32.679Z,994.74
2017-12-26T07:38:42.480Z,994.71
2017-12-26T07:39:52.322Z,994.68
2017-12-26T07:41:02.385Z,994.66
2017-12-26T07:42:12.482Z,994.68
2017-12-26T07:43:22.544Z,994.72
2017-12-26T07:44:32.594Z,994.74
2017-12-26T07:45:42.436Z,994.73
2017-12-26T07:46:52.506Z,994.66
2017-12-26T07:48:02.580Z,994.65
2017-12-26T07:49:12.375Z,994.61
2017-12-26T07:50:22.494Z,994.63
2017-12-26T07:51:32.044Z,994.69
2017-12-26T07:52:42.096Z,994.72
2017-12-26T07:53:52.404Z,994.72
2017-12-26T07:55:02.477Z,994.69
2017-12-26T07:56:12.602Z,994.63
2017-12-26T07:57:22.670Z,994.61
2017-12-26T07:58:32.207Z,994.62
2017-12-26T07:59:42.316Z,994.65
2017-12-26T08:00:52.106Z,994.61
2017-12-26T08:02:01.714Z,994.64
2017-12-26T08:03:11.779Z,994.59
2017-12-26T08:04:21.850Z,994.56
2017-12-26T08:05:31.831Z,994.5
2017-12-26T08:06:41.885Z,994.55
2017-12-26T08:07:51.731Z,994.53
2017-12-26T08:09:01.822Z,994.58
2017-12-26T08:10:11.628Z,994.57
2017-12-26T08:11:21.712Z,994.53
2017-12-26T08:12:31.847Z,994.53
2017-12-26T08:13:41.649Z,994.53
2017-12-26T08:14:51.696Z,994.44
2017-12-26T08:16:01.745Z,994.46
2017-12-26T08:17:11.794Z,994.46
2017-12-26T08:18:21.842Z,994.48
2017-12-26T08:19:31.938Z,994.47
2017-12-26T08:20:41.989Z,994.5
2017-12-26T08:21:52.034Z,994.51
2017-12-26T08:23:02.414Z,994.56
2017-12-26T08:24:12.472Z,994.58
2017-12-26T08:25:22.526Z,994.59
2017-12-26T08:26:32.578Z,994.58
2017-12-26T08:27:42.654Z,994.63
2017-12-26T08:28:52.214Z,994.64
2017-12-26T08:30:02.302Z,994.6
2017-12-26T08:31:12.154Z,994.56
2017-12-26T08:32:21.722Z,994.58
2017-12-26T08:33:31.802Z,994.6
2017-12-26T08:34:41.881Z,994.58
2017-12-26T08:35:51.957Z,994.6
2017-12-26T08:37:02.050Z,994.57
2017-12-26T08:38:12.176Z,994.58
2017-12-26T08:39:22.227Z,994.57
2017-12-26T08:40:32.300Z,994.54
2017-12-26T08:41:42.435Z,994.5
2017-12-26T08:42:52.509Z,994.55
2017-12-26T08:44:02.571Z,994.54
2017-12-26T08:45:12.641Z,994.59
2017-12-26T08:46:22.727Z,994.54
2017-12-26T08:47:32.797Z,994.5
2017-12-26T08:48:42.658Z,994.52
2017-12-26T08:49:52.515Z,994.52
2017-12-26T08:51:02.601Z,994.55
2017-12-26T08:52:12.686Z,994.55
2017-12-26T08:53:22.765Z,994.53
2017-12-26T08:54:32.877Z,994.49
2017-12-26T08:55:42.979Z,994.49
2017-12-26T08:56:53.052Z,994.44
2017-12-26T08:58:03.128Z,994.41
2017-12-26T08:59:13.205Z,994.46
2017-12-26T09:00:23.249Z,994.48
2017-12-26T09:01:33.345Z,994.49
2017-12-26T09:02:43.416Z,994.51
2017-12-26T09:03:53.213Z,994.52
2017-12-26T09:05:03.280Z,994.51
2017-12-26T09:06:13.212Z,994.48
2017-12-26T09:07:23.288Z,994.51
2017-12-26T09:08:33.360Z,994.53
2017-12-26T09:09:43.427Z,994.53
2017-12-26T09:10:53.482Z,994.52
2017-12-26T09:12:03.286Z,994.53
2017-12-26T09:13:12.944Z,994.46
2017-12-26T09:14:23.021Z,994.47
2017-12-26T09:15:32.562Z,994.47
2017-12-26T09:16:42.388Z,994.48
2017-12-26T09:17:52.502Z,994.46
2017-12-26T09:19:02.891Z,994.51
2017-12-26T09:20:12.705Z,994.47
2017-12-26T09:21:22.831Z,994.46
2017-12-26T09:22:32.656Z,994.48
2017-12-26T09:23:42.536Z,994.44
2017-12-26T09:24:52.613Z,994.46
2017-12-26T09:26:02.694Z,994.47
2017-12-26T09:27:12.757Z,994.49
2017-12-26T09:28:23.666Z,994.48
2017-12-26T09:29:33.644Z,994.53
2017-12-26T09:30:43.714Z,994.46
2017-12-26T09:31:53.794Z,994.48
2017-12-26T09:33:03.948Z,994.43
2017-12-26T09:34:14.006Z,994.44
2017-12-26T09:35:24.278Z,994.41
2017-12-26T09:36:34.335Z,994.4
2017-12-26T09:37:44.175Z,994.4
2017-12-26T09:38:54.254Z,994.38
2017-12-26T09:40:04.047Z,994.35
2017-12-26T09:41:14.810Z,994.35
2017-12-26T09:42:24.882Z,994.3
2017-12-26T09:43:34.666Z,994.34
2017-12-26T09:44:44.813Z,994.35
2017-12-26T09:45:54.953Z,994.34
2017-12-26T09:47:05.394Z,994.29
2017-12-26T09:48:15.513Z,994.27
2017-12-26T09:49:26.186Z,994.28
2017-12-26T09:50:36.192Z,994.29
2017-12-26T09:51:46.385Z,994.21
2017-12-26T09:52:56.343Z,994.22
2017-12-26T09:54:06.161Z,994.18
2017-12-26T09:55:16.255Z,994.18
2017-12-26T09:56:26.326Z,994.14
2017-12-26T09:57:37.602Z,994.16
2017-12-26T09:58:47.961Z,994.11
2017-12-26T09:59:58.054Z,994.08
2017-12-26T10:01:08.198Z,994.11
2017-12-26T10:02:18.295Z,994.12
2017-12-26T10:03:28.363Z,994.09
2017-12-26T10:04:38.453Z,994.1
2017-12-26T10:05:48.585Z,994.16
2017-12-26T10:06:58.400Z,994.15
2017-12-26T10:08:08.465Z,994.15
2017-12-26T10:09:18.547Z,994.06
2017-12-26T10:10:28.684Z,994.06
2017-12-26T10:11:38.762Z,994.03
2017-12-26T10:12:48.819Z,993.97
2017-12-26T10:13:58.899Z,993.95
2017-12-26T10:15:08.972Z,993.95
2017-12-26T10:16:19.048Z,993.96
2017-12-26T10:17:29.155Z,993.9
2017-12-26T10:18:39.563Z,993.91
2017-12-26T10:19:49.900Z,993.9
2017-12-26T10:20:59.957Z,993.85
2017-12-26T10:22:10.042Z,993.86
2017-12-26T10:23:20.132Z,993.85
2017-12-26T10:24:30.309Z,993.81
2017-12-26T10:25:40.376Z,993.8
2017-12-26T10:26:50.450Z,993.83
2017-12-26T10:28:00.513Z,993.78
2017-12-26T10:29:10.606Z,993.76
2017-12-26T10:30:20.680Z,993.78
2017-12-26T10:31:30.545Z,993.77
2017-12-26T10:32:40.365Z,993.75
2017-12-26T10:33:50.460Z,993.71
2017-12-26T10:35:00.286Z,993.7
2017-12-26T10:36:11.636Z,993.7
2017-12-26T10:37:21.703Z,993.68
2017-12-26T10:38:31.813Z,993.72
2017-12-26T10:39:41.895Z,993.69
2017-12-26T10:40:52.651Z,993.74
2017-12-26T10:42:02.800Z,993.72
2017-12-26T10:43:12.970Z,993.7
2017-12-26T10:44:23.072Z,993.65
2017-12-26T10:45:33.188Z,993.59
2017-12-26T10:46:43.299Z,993.58
2017-12-26T10:47:54.017Z,993.52
2017-12-26T10:49:04.949Z,993.53
2017-12-26T10:50:14.855Z,993.51
2017-12-26T10:51:24.998Z,993.51
2017-12-26T10:52:35.085Z,993.53
2017-12-26T10:53:45.170Z,993.5
2017-12-26T10:54:55.263Z,993.44
2017-12-26T10:56:05.363Z,993.42
2017-12-26T10:57:15.435Z,993.43
2017-12-26T10:58:25.509Z,993.44
2017-12-26T10:59:35.385Z,993.39
2017-12-26T11:00:45.188Z,993.41
2017-12-26T11:01:55.294Z,993.4
2017-12-26T11:03:05.097Z,993.4
2017-12-26T11:04:15.180Z,993.39
2017-12-26T11:05:25.051Z,993.4
2017-12-26T11:06:34.914Z,993.41
2017-12-26T11:07:45.640Z,993.4
2017-12-26T11:08:55.732Z,993.4
2017-12-26T11:10:05.820Z,993.4
2017-12-26T11:11:15.969Z,993.37
2017-12-26T11:12:26.104Z,993.34
2017-12-26T11:13:36.208Z,993.33
2017-12-26T11:14:46.306Z,993.31
2017-12-26T11:15:56.372Z,993.29
2017-12-26T11:17:06.470Z,993.24
2017-12-26T11:18:16.570Z,993.29
2017-12-26T11:19:26.386Z,993.27
2017-12-26T11:20:36.473Z,993.28
2017-12-26T11:21:46.293Z,993.26
2017-12-26T11:22:56.366Z,993.25
2017-12-26T11:24:06.437Z,993.24
2017-12-26T11:25:16.513Z,993.25
2017-12-26T11:26:26.583Z,993.21
2017-12-26T11:27:36.404Z,993.16
2017-12-26T11:28:46.311Z,993.16
2017-12-26T11:29:56.412Z,993.19
2017-12-26T11:31:07.774Z,993.2
2017-12-26T11:32:17.890Z,993.17
2017-12-26T11:33:27.980Z,993.11
2017-12-26T11:34:38.111Z,993.12
2017-12-26T11:35:48.208Z,993.15
2017-12-26T11:36:58.307Z,993.21
2017-12-26T11:38:08.123Z,993.21
2017-12-26T11:39:18.220Z,993.19
2017-12-26T11:40:30.366Z,993.17
2017-12-26T11:41:42.296Z,993.11
2017-12-26T11:42:52.108Z,993.15
2017-12-26T11:44:01.957Z,993.11
2017-12-26T11:45:12.057Z,993.05
2017-12-26T11:46:22.191Z,993.04
2017-12-26T11:47:32.286Z,993.04
2017-12-26T11:48:42.135Z,993.05
2017-12-26T11:49:52.324Z,993.06
2017-12-26T11:51:02.489Z,993.04
2017-12-26T11:52:12.373Z,993.06
2017-12-26T11:53:22.180Z,993.08
2017-12-26T11:54:32.252Z,993.1
2017-12-26T11:55:42.990Z,993.06
2017-12-26T11:56:53.060Z,993.04
2017-12-26T11:58:03.948Z,993.04
2017-12-26T11:59:14.097Z,992.99
2017-12-26T12:00:24.193Z,993.07
2017-12-26T12:01:34.305Z,992.98
2017-12-26T12:02:44.377Z,992.97
2017-12-26T12:03:54.669Z,992.91
2017-12-26T12:05:05.714Z,992.86
2017-12-26T12:06:15.515Z,992.86
2017-12-26T12:07:25.327Z,992.89
2017-12-26T12:08:35.416Z,992.89
2017-12-26T12:09:45.538Z,992.87
2017-12-26T12:10:55.643Z,992.93
2017-12-26T12:12:05.724Z,992.99
2017-12-26T12:13:15.555Z,992.9
2017-12-26T12:14:25.394Z,992.92
2017-12-26T12:15:35.275Z,992.93
2017-12-26T12:16:45.584Z,992.87
2017-12-26T12:17:55.728Z,992.87
2017-12-26T12:19:05.537Z,992.82
2017-12-26T12:20:15.635Z,992.82
2017-12-26T12:21:25.724Z,992.81
2017-12-26T12:22:35.551Z,992.77
2017-12-26T12:23:46.376Z,992.8
2017-12-26T12:24:56.492Z,992.86
2017-12-26T12:26:06.585Z,992.84
2017-12-26T12:27:17.192Z,992.8
2017-12-26T12:28:27.026Z,992.81
2017-12-26T12:29:37.772Z,992.69
2017-12-26T12:30:47.867Z,992.71
2017-12-26T12:31:57.956Z,992.67
2017-12-26T12:33:08.111Z,992.67
2017-12-26T12:34:18.213Z,992.66
2017-12-26T12:35:28.298Z,992.64
2017-12-26T12:36:38.120Z,992.57
2017-12-26T12:37:48.224Z,992.58
2017-12-26T12:38:58.298Z,992.57
2017-12-26T12:40:08.387Z,992.58
2017-12-26T12:41:18.213Z,992.58
2017-12-26T12:42:28.308Z,992.54
2017-12-26T12:43:38.140Z,992.57
2017-12-26T12:44:48.265Z,992.53
2017-12-26T12:45:57.805Z,992.53
2017-12-26T12:47:07.380Z,992.55
2017-12-26T12:48:17.480Z,992.53
2017-12-26T12:49:30.593Z,992.49
2017-12-26T12:50:40.686Z,992.47
2017-12-26T12:51:51.665Z,992.45
2017-12-26T12:53:01.786Z,992.45
2017-12-26T12:54:14.007Z,992.49
2017-12-26T12:55:24.110Z,992.48
2017-12-26T12:56:33.684Z,992.48
2017-12-26T12:57:45.713Z,992.47
2017-12-26T12:58:56.739Z,992.47
2017-12-26T13:00:06.828Z,992.46
2017-12-26T13:01:17.894Z,992.48
2017-12-26T13:02:27.984Z,992.46
2017-12-26T13:03:38.056Z,992.47
2017-12-26T13:04:49.294Z,992.43
2017-12-26T13:05:59.115Z,992.46
2017-12-26T13:07:09.189Z,992.48
2017-12-26T13:08:19.280Z,992.45
2017-12-26T13:09:30.881Z,992.47
2017-12-26T13:10:41.008Z,992.43
2017-12-26T13:11:50.832Z,992.45
2017-12-26T13:13:00.925Z,992.43
2017-12-26T13:14:10.992Z,992.42
2017-12-26T13:15:23.983Z,992.44
2017-12-26T13:16:35.409Z,992.43
2017-12-26T13:17:45.495Z,992.42
2017-12-26T13:18:55.581Z,992.47
2017-12-26T13:20:05.405Z,992.37
2017-12-26T13:21:17.686Z,992.31
2017-12-26T13:22:29.225Z,992.34
2017-12-26T13:23:40.252Z,992.27
2017-12-26T13:24:50.340Z,992.27
2017-12-26T13:26:02.863Z,992.27
2017-12-26T13:27:14.351Z,992.26
2017-12-26T13:28:24.454Z,992.25
2017-12-26T13:29:34.282Z,992.26
2017-12-26T13:30:45.494Z,992.25
2017-12-26T13:31:55.310Z,992.26
2017-12-26T13:33:06.741Z,992.28
2017-12-26T13:34:19.162Z,992.29
2017-12-26T13:35:29.245Z,992.28
2017-12-26T13:36:38.817Z,992.27
2017-12-26T13:37:49.133Z,992.3
2017-12-26T13:38:59.229Z,992.34
2017-12-26T13:40:11.551Z,992.42
2017-12-26T13:41:21.608Z,992.37
2017-12-26T13:42:31.670Z,992.35
2017-12-26T13:43:41.486Z,992.28
2017-12-26T13:44:51.285Z,992.36
2017-12-26T13:46:01.418Z,992.36
2017-12-26T13:47:11.486Z,992.32
2017-12-26T13:48:21.047Z,992.28
2017-12-26T13:49:31.122Z,992.29
2017-12-26T13:50:41.191Z,992.33
2017-12-26T13:51:51.576Z,992.34
2017-12-26T13:53:01.384Z,992.35
2017-12-26T13:54:11.208Z,992.33
2017-12-26T13:55:21.056Z,992.29
2017-12-26T13:56:31.151Z,992.29
2017-12-26T13:57:41.003Z,992.25
2017-12-26T13:58:50.821Z,992.22
2017-12-26T14:00:00.633Z,992.15
2017-12-26T14:01:13.271Z,992.17
2017-12-26T14:02:24.505Z,992.12
2017-12-26T14:03:34.646Z,992.16
2017-12-26T14:04:44.711Z,992.17
2017-12-26T14:05:56.474Z,992.18
2017-12-26T14:07:06.530Z,992.17
2017-12-26T14:08:16.581Z,992.24
2017-12-26T14:09:26.732Z,992.14
2017-12-26T14:10:36.819Z,992.19
2017-12-26T14:11:47.879Z,992.18
2017-12-26T14:12:59.906Z,992.2
2017-12-26T14:14:09.730Z,992.19
2017-12-26T14:15:19.789Z,992.21
2017-12-26T14:16:29.643Z,992.2
2017-12-26T14:17:39.722Z,992.18
2017-12-26T14:18:49.817Z,992.18
2017-12-26T14:19:59.922Z,992.19
2017-12-26T14:21:10.047Z,992.13
2017-12-26T14:22:20.564Z,992.09
2017-12-26T14:23:31.991Z,992.01
2017-12-26T14:24:41.813Z,992.02
2017-12-26T14:25:51.668Z,992.02
2017-12-26T14:27:04.567Z,992.01
2017-12-26T14:28:14.664Z,992.07
2017-12-26T14:29:26.186Z,992.08
2017-12-26T14:30:36.000Z,992.07
2017-12-26T14:31:47.572Z,992.09
2017-12-26T14:32:59.738Z,992.02
2017-12-26T14:34:09.545Z,992.04
2017-12-26T14:35:20.640Z,992.01
2017-12-26T14:36:31.583Z,992
2017-12-26T14:37:42.924Z,991.95
2017-12-26T14:38:53.570Z,991.95
2017-12-26T14:40:04.348Z,991.88
2017-12-26T14:41:14.406Z,991.93
2017-12-26T14:42:24.469Z,991.98
2017-12-26T14:43:33.749Z,991.99
2017-12-26T14:44:43.628Z,992.03
2017-12-26T14:45:55.118Z,992.05
2017-12-26T14:47:05.183Z,992
2017-12-26T14:48:15.249Z,991.97
2017-12-26T14:49:25.316Z,992.01
2017-12-26T14:50:35.178Z,992.03
2017-12-26T14:51:46.505Z,992.08
2017-12-26T14:52:56.577Z,992.05
2017-12-26T14:54:06.652Z,992.09
2017-12-26T14:55:16.737Z,992.03
2017-12-26T14:56:26.547Z,992.03
2017-12-26T14:57:36.621Z,992.06
2017-12-26T14:58:46.458Z,992.08
2017-12-26T14:59:56.579Z,992.1
2017-12-26T15:01:06.654Z,992.03
2017-12-26T15:02:16.781Z,991.98
2017-12-26T15:03:26.872Z,991.96
2017-12-26T15:04:36.929Z,991.92
2017-12-26T15:05:47.009Z,991.89
2017-12-26T15:06:58.222Z,991.87